Time;durP1;ratioP1;P1;durP2;ratioP2;P2;SDS_P1;SDS_P2;PMS_P1;PMS_P2;Temp;Humidity;BMP_temperature;BMP_pressure;BME280_temperature;BME280_humidity;BME280_pressure;Samples;Min_cycle;Max_cycle;Signal;HPM_P1;HPM_P2
2023/08/31 00:02:12;;;;;;;25.88;17.13;;;;;;;-144.73;100.00;54510.31;4994296;28;20049;-75
2023/08/31 00:04:38;;;;;;;24.40;16.90;;;;;;;-144.73;100.00;54477.47;4993942;28;20037;-75
2023/08/31 00:07:03;;;;;;;23.85;17.35;;;;;;;-144.73;100.00;54481.59;4993789;28;20064;-75
2023/08/31 00:09:31;;;;;;;26.13;17.17;;;;;;;-144.73;100.00;54483.66;4993416;28;20026;-75
2023/08/31 00:11:57;;;;;;;25.40;17.33;;;;;;;-144.73;100.00;54477.47;4990762;28;20076;-75
2023/08/31 00:14:23;;;;;;;24.02;17.17;;;;;;;-144.73;100.00;54506.22;4993497;28;20031;-75
2023/08/31 00:16:49;;;;;;;22.50;15.68;;;;;;;-144.73;100.00;54473.38;5011719;28;20022;-75
2023/08/31 00:19:15;;;;;;;20.48;15.18;;;;;;;-144.73;100.00;54506.22;5010369;28;20017;-76
2023/08/31 00:21:41;;;;;;;20.25;16.05;;;;;;;-144.73;100.00;54489.81;4993814;28;20037;-75
2023/08/31 00:24:07;;;;;;;18.27;14.68;;;;;;;-144.73;100.00;54510.31;4993444;28;20161;-75
2023/08/31 00:26:33;;;;;;;21.65;15.05;;;;;;;-144.73;100.00;54473.38;4993302;28;20386;-75
2023/08/31 00:28:58;;;;;;;22.05;14.88;;;;;;;-144.73;100.00;54510.31;5010799;28;20125;-76
2023/08/31 00:31:24;;;;;;;21.13;14.40;;;;;;;-144.73;100.00;54510.31;4992952;28;20038;-76
2023/08/31 00:33:50;;;;;;;20.55;15.05;;;;;;;-144.73;100.00;54491.84;5011585;28;20057;-76
2023/08/31 00:36:18;;;;;;;19.67;13.82;;;;;;;-144.73;100.00;54485.69;4993521;28;20030;-76
2023/08/31 00:38:43;;;;;;;22.52;14.65;;;;;;;-144.73;100.00;54432.31;4994004;28;20036;-76
2023/08/31 00:41:09;;;;;;;23.45;14.10;;;;;;;-144.73;100.00;54522.63;4992863;28;20029;-76
2023/08/31 00:43:34;;;;;;;23.65;13.65;;;;;;;-144.73;100.00;54495.97;4994062;28;20053;-76
2023/08/31 00:45:59;;;;;;;19.23;13.30;;;;;;;-144.73;100.00;54444.66;5011392;28;20034;-76
2023/08/31 00:48:25;;;;;;;15.65;12.70;;;;;;;-144.73;100.00;54481.59;4998205;28;20025;-76
2023/08/31 00:50:51;;;;;;;18.50;13.07;;;;;;;-144.73;100.00;54502.13;4993060;28;20038;-76
2023/08/31 00:53:17;;;;;;;19.42;12.52;;;;;;;-144.73;100.00;54448.75;4993698;28;20022;-76
2023/08/31 00:55:44;;;;;;;20.88;11.90;;;;;;;-144.73;100.00;54446.69;5011120;28;20776;-77
2023/08/31 00:58:10;;;;;;;18.48;12.65;;;;;;;-144.73;100.00;54487.75;4993739;28;20029;-75
2023/08/31 01:00:53;;;;;;;21.40;14.10;;;;;;;-144.73;100.00;54493.91;4992163;28;20105;-75
2023/08/31 01:03:32;;;;;;;17.08;13.95;;;;;;;-144.73;100.00;54481.59;4988430;28;20022;-75
2023/08/31 01:06:04;;;;;;;21.50;13.65;;;;;;;-144.73;100.00;54448.75;4989870;28;20037;-76
2023/08/31 01:09:03;;;;;;;23.25;14.75;;;;;;;-144.73;100.00;54481.59;4993650;28;20038;-76
2023/08/31 01:11:52;;;;;;;18.70;12.57;;;;;;;-144.73;100.00;54514.44;4985132;28;20045;-76
2023/08/31 01:14:23;;;;;;;22.05;12.70;;;;;;;-144.73;100.00;54487.75;4993038;28;20081;-76
2023/08/31 01:16:49;;;;;;;21.13;12.77;;;;;;;-144.73;100.00;54477.47;4992907;28;20057;-76
2023/08/31 01:19:51;;;;;;;19.15;12.77;;;;;;;-144.73;100.00;54469.28;4992329;28;20045;-76
2023/08/31 01:22:36;;;;;;;24.25;12.23;;;;;;;-144.73;100.00;54495.97;4993430;28;20105;-76
2023/08/31 01:25:04;;;;;;;20.42;12.88;;;;;;;-144.73;100.00;54485.69;4990689;28;20030;-77
2023/08/31 01:27:31;;;;;;;20.20;12.82;;;;;;;-144.73;100.00;54477.47;4993291;28;20048;-76
2023/08/31 01:29:57;;;;;;;25.55;12.68;;;;;;;-144.73;100.00;54493.91;4991924;28;20029;-76
2023/08/31 01:32:23;;;;;;;15.77;11.20;;;;;;;-144.73;100.00;54522.63;4993272;28;20022;-77
2023/08/31 01:34:51;;;;;;;18.88;11.95;;;;;;;-144.73;100.00;54502.13;4992248;28;20034;-76
2023/08/31 01:37:34;;;;;;;16.55;10.77;;;;;;;-144.73;100.00;54493.91;4992484;28;20057;-77
2023/08/31 01:40:10;;;;;;;19.15;11.25;;;;;;;-144.73;100.00;54502.13;4989903;28;20141;-76
2023/08/31 01:42:36;;;;;;;19.00;9.60;;;;;;;-144.73;100.00;54456.97;5014014;28;20025;-77
2023/08/31 01:45:02;;;;;;;23.40;10.90;;;;;;;-144.73;100.00;54510.31;4992022;28;20026;-76
2023/08/31 01:47:28;;;;;;;15.98;10.18;;;;;;;-144.73;100.00;54498.00;4997105;28;20057;-75
2023/08/31 01:49:54;;;;;;;16.42;9.88;;;;;;;-144.73;100.00;54510.31;4995543;28;20041;-75
2023/08/31 01:52:19;;;;;;;21.65;10.07;;;;;;;-144.73;100.00;54493.91;4996565;28;20028;-76
2023/08/31 01:54:44;;;;;;;15.45;9.77;;;;;;;-144.73;100.00;54498.00;5013904;28;20030;-77
2023/08/31 01:57:10;;;;;;;20.42;9.60;;;;;;;-144.73;100.00;54481.59;5014080;28;20112;-76
2023/08/31 01:59:35;;;;;;;18.45;9.95;;;;;;;-144.73;100.00;54498.00;4996028;28;20033;-76
2023/08/31 02:02:01;;;;;;;16.77;9.38;;;;;;;-144.73;100.00;54440.53;4996004;28;20416;-76
2023/08/31 02:04:26;;;;;;;19.55;10.02;;;;;;;-144.73;100.00;54502.13;4996070;28;20025;-76
2023/08/31 02:06:52;;;;;;;17.20;9.15;;;;;;;-144.73;100.00;54539.06;4996918;28;20552;-76
2023/08/31 02:09:17;;;;;;;21.95;10.32;;;;;;;-144.73;100.00;54481.59;4996231;28;20104;-77
2023/08/31 02:11:42;;;;;;;15.00;9.65;;;;;;;-144.73;100.00;54461.06;4996906;28;20034;-76
2023/08/31 02:14:08;;;;;;;16.90;10.85;;;;;;;-144.73;100.00;54473.38;4996770;28;20030;-76
2023/08/31 02:16:34;;;;;;;17.02;11.30;;;;;;;-144.73;100.00;54493.91;4996118;28;20038;-75
2023/08/31 02:18:59;;;;;;;24.58;11.23;;;;;;;-144.73;100.00;54493.91;4996795;28;20062;-76
2023/08/31 02:21:25;;;;;;;15.93;10.48;;;;;;;-144.73;100.00;54498.00;4996220;28;20060;-75
2023/08/31 02:23:50;;;;;;;22.15;10.70;;;;;;;-144.73;100.00;54498.00;4996716;28;20417;-75
2023/08/31 02:26:16;;;;;;;22.10;10.63;;;;;;;-144.73;100.00;54493.91;4995645;28;20033;-76
2023/08/31 02:28:41;;;;;;;22.75;12.02;;;;;;;-144.73;100.00;54465.16;4996170;28;20076;-75
2023/08/31 02:31:06;;;;;;;23.92;11.02;;;;;;;-144.73;100.00;54473.38;4995478;28;20030;-75
2023/08/31 02:33:32;;;;;;;19.27;9.90;;;;;;;-144.73;100.00;54485.69;4995942;28;20021;-75
2023/08/31 02:35:58;;;;;;;17.83;9.95;;;;;;;-144.73;100.00;54489.81;4994759;28;20053;-76
2023/08/31 02:38:24;;;;;;;16.20;9.48;;;;;;;-144.73;100.00;54506.22;4995647;28;20069;-75
2023/08/31 02:40:49;;;;;;;20.58;10.98;;;;;;;-144.73;100.00;54506.22;4995375;28;20066;-75
2023/08/31 02:43:15;;;;;;;24.30;9.93;;;;;;;-144.73;100.00;54477.47;4995745;28;20030;-76
2023/08/31 02:45:40;;;;;;;17.58;9.40;;;;;;;-144.73;100.00;54477.47;4997426;28;20116;-75
2023/08/31 02:48:10;;;;;;;19.13;9.32;;;;;;;-144.73;100.00;54493.91;4992003;28;20041;-74
2023/08/31 02:50:35;;;;;;;16.23;9.23;;;;;;;-144.73;100.00;54489.81;4994631;28;20120;-74
2023/08/31 02:53:01;;;;;;;17.55;8.82;;;;;;;-144.73;100.00;54489.81;4994705;28;20545;-74
2023/08/31 02:55:27;;;;;;;15.13;9.02;;;;;;;-144.73;100.00;54469.28;4995733;28;20030;-74
2023/08/31 02:57:53;;;;;;;17.58;8.68;;;;;;;-144.73;100.00;54524.69;4995271;28;20038;-74
2023/08/31 03:00:21;;;;;;;17.00;8.18;;;;;;;-144.73;100.00;54514.44;4995182;28;20018;-74
2023/08/31 03:02:47;;;;;;;13.07;8.00;;;;;;;-144.73;100.00;54477.47;4995932;28;20025;-74
2023/08/31 03:05:13;;;;;;;15.73;8.07;;;;;;;-144.73;100.00;54502.13;4995399;28;20129;-74
2023/08/31 03:07:39;;;;;;;20.15;8.05;;;;;;;-144.73;100.00;54489.81;4995674;28;20120;-74
2023/08/31 03:10:05;;;;;;;15.13;7.75;;;;;;;-144.73;100.00;54489.81;4995534;28;20038;-74
2023/08/31 03:12:30;;;;;;;16.23;7.53;;;;;;;-144.73;100.00;54493.91;4996573;28;20035;-74
2023/08/31 03:14:55;;;;;;;16.15;8.15;;;;;;;-144.73;100.00;54510.31;4995541;28;20038;-74
2023/08/31 03:17:21;;;;;;;16.20;7.45;;;;;;;-144.73;100.00;54493.91;4992359;28;20052;-74
2023/08/31 03:19:46;;;;;;;15.50;7.63;;;;;;;-144.73;100.00;54477.47;4993687;28;20037;-74
2023/08/31 03:22:11;;;;;;;15.73;7.32;;;;;;;-144.73;100.00;54495.97;4997254;28;20084;-74
2023/08/31 03:24:37;;;;;;;22.95;7.15;;;;;;;-144.73;100.00;54514.44;4993009;28;20030;-74
2023/08/31 03:27:03;;;;;;;11.13;6.35;;;;;;;-144.73;100.00;54530.84;5013039;28;20509;-74
2023/08/31 03:29:28;;;;;;;13.82;6.45;;;;;;;-144.73;100.00;54498.00;4995823;28;20021;-74
2023/08/31 03:31:54;;;;;;;13.13;7.10;;;;;;;-144.73;100.00;54506.22;4995032;28;20498;-75
2023/08/31 03:34:20;;;;;;;16.17;7.28;;;;;;;-144.73;100.00;54506.22;4994883;28;20022;-74
2023/08/31 03:36:45;;;;;;;19.48;6.50;;;;;;;-144.73;100.00;54489.81;4995284;28;20033;-73
2023/08/31 03:39:11;;;;;;;13.65;6.47;;;;;;;-144.73;100.00;54510.31;5012212;28;20028;-75
2023/08/31 03:41:36;;;;;;;14.23;6.28;;;;;;;-144.73;100.00;54493.91;4995604;28;20022;-74
2023/08/31 03:44:01;;;;;;;14.80;6.28;;;;;;;-144.73;100.00;54498.00;4991056;28;20032;-74
2023/08/31 03:46:27;;;;;;;17.98;6.43;;;;;;;-144.73;100.00;54498.00;4999020;28;20048;-74
2023/08/31 03:48:52;;;;;;;19.58;5.88;;;;;;;-144.73;100.00;54506.22;4992140;28;20022;-74
2023/08/31 03:51:18;;;;;;;14.85;5.93;;;;;;;-144.73;100.00;54522.63;4994476;28;20036;-74
2023/08/31 03:53:44;;;;;;;12.82;5.80;;;;;;;-144.73;100.00;54493.91;4995193;28;20125;-74
2023/08/31 03:56:09;;;;;;;14.68;5.35;;;;;;;-144.73;100.00;54506.22;4990469;28;20034;-74
2023/08/31 03:58:34;;;;;;;17.95;5.20;;;;;;;-144.73;100.00;54491.84;5009742;28;20057;-74
2023/08/31 04:01:00;;;;;;;17.50;5.10;;;;;;;-144.73;100.00;54477.47;5012125;28;20034;-74
2023/08/31 04:03:25;;;;;;;15.68;4.80;;;;;;;-144.73;100.00;54477.47;5011743;28;20034;-74
2023/08/31 04:05:57;;;;;;;16.90;5.80;;;;;;;-144.73;100.00;54495.97;4994269;28;20580;-74
2023/08/31 04:08:22;;;;;;;14.05;5.57;;;;;;;-144.73;100.00;54506.22;5012660;28;20029;-75
2023/08/31 04:10:47;;;;;;;8.48;4.57;;;;;;;-144.73;100.00;54481.59;4994526;28;20038;-74
2023/08/31 04:13:13;;;;;;;14.15;5.20;;;;;;;-144.73;100.00;54481.59;4994972;28;20132;-74
2023/08/31 04:15:38;;;;;;;13.93;5.03;;;;;;;-144.73;100.00;54522.63;4994518;28;20037;-74
2023/08/31 04:18:04;;;;;;;18.65;5.20;;;;;;;-144.73;100.00;54518.53;4994535;28;20053;-74
2023/08/31 04:20:30;;;;;;;10.45;4.70;;;;;;;-144.73;100.00;54522.63;5014189;28;20034;-75
2023/08/31 04:22:55;;;;;;;15.48;5.38;;;;;;;-144.73;100.00;54493.91;4994639;28;20029;-74
2023/08/31 04:25:21;;;;;;;15.68;4.15;;;;;;;-144.73;100.00;54514.44;4993799;28;20117;-74
2023/08/31 04:27:46;;;;;;;12.95;4.50;;;;;;;-144.73;100.00;54493.91;4994712;28;20030;-74
2023/08/31 04:30:12;;;;;;;14.18;5.45;;;;;;;-144.73;100.00;54475.44;4991624;28;20045;-76
2023/08/31 04:32:37;;;;;;;17.58;4.43;;;;;;;-144.73;100.00;54485.69;4992247;28;20084;-76
2023/08/31 04:35:06;;;;;;;14.80;4.60;;;;;;;-144.73;100.00;54465.16;5001112;28;20114;-74
2023/08/31 04:37:32;;;;;;;13.23;3.90;;;;;;;-144.73;100.00;54526.75;4994441;28;20117;-74
2023/08/31 04:39:57;;;;;;;12.68;4.22;;;;;;;-144.73;100.00;54518.53;4993440;28;20033;-74
2023/08/31 04:42:23;;;;;;;12.90;4.28;;;;;;;-144.73;100.00;54516.47;5011957;28;20032;-76
2023/08/31 04:44:49;;;;;;;14.32;5.05;;;;;;;-144.73;100.00;54510.31;4993904;28;20030;-76
2023/08/31 04:47:15;;;;;;;11.00;4.38;;;;;;;-144.73;100.00;54510.31;4994360;28;20032;-75
2023/08/31 04:49:40;;;;;;;13.98;4.57;;;;;;;-144.73;100.00;54500.06;4994912;28;20113;-74
2023/08/31 04:52:05;;;;;;;18.75;4.80;;;;;;;-144.73;100.00;54510.31;5013142;28;20061;-74
2023/08/31 04:54:31;;;;;;;17.13;5.03;;;;;;;-144.73;100.00;54530.84;4993406;28;20030;-75
2023/08/31 04:56:56;;;;;;;20.60;5.18;;;;;;;-144.73;100.00;54487.75;4994183;28;20057;-75
2023/08/31 04:59:22;;;;;;;13.18;5.22;;;;;;;-144.73;100.00;54493.91;4993522;28;20025;-74
2023/08/31 05:01:47;;;;;;;10.48;5.13;;;;;;;-144.73;100.00;54522.63;4994374;28;20053;-74
2023/08/31 05:04:12;;;;;;;12.50;4.93;;;;;;;-144.73;100.00;54495.97;4997620;28;20026;-74
2023/08/31 05:06:38;;;;;;;12.27;5.70;;;;;;;-144.73;100.00;54502.13;4994209;28;20430;-74
2023/08/31 05:09:04;;;;;;;15.25;5.55;;;;;;;-144.73;100.00;54500.06;5011382;28;20123;-74
2023/08/31 05:11:29;;;;;;;13.98;5.35;;;;;;;-144.73;100.00;54522.63;4993210;28;20113;-74
2023/08/31 05:13:55;;;;;;;14.63;5.45;;;;;;;-144.73;100.00;54510.31;4994031;28;20028;-75
2023/08/31 05:16:20;;;;;;;16.63;6.40;;;;;;;-144.73;100.00;54477.47;5009228;28;20038;-75
2023/08/31 05:18:46;;;;;;;13.48;5.82;;;;;;;-144.73;100.00;54481.59;4994028;28;20057;-74
2023/08/31 05:21:11;;;;;;;15.07;5.40;;;;;;;-144.73;100.00;54473.38;4992672;28;20391;-75
2023/08/31 05:23:37;;;;;;;14.50;4.88;;;;;;;-144.73;100.00;54510.31;4993329;28;20056;-74
2023/08/31 05:26:02;;;;;;;15.52;6.75;;;;;;;-144.73;100.00;54481.59;4988925;28;20069;-74
2023/08/31 05:28:28;;;;;;;17.00;5.35;;;;;;;-144.73;100.00;54514.44;4994885;28;20056;-75
2023/08/31 05:30:57;;;;;;;15.60;5.35;;;;;;;-144.73;100.00;54510.31;4993003;28;20053;-75
2023/08/31 05:33:22;;;;;;;19.52;5.38;;;;;;;-144.73;100.00;54506.22;4997496;28;20034;-74
2023/08/31 05:35:48;;;;;;;12.73;4.47;;;;;;;-144.73;100.00;54518.53;4994354;28;20036;-73
2023/08/31 05:38:13;;;;;;;12.35;6.60;;;;;;;-144.73;100.00;54506.22;5010980;28;20021;-74
2023/08/31 05:40:39;;;;;;;10.90;5.15;;;;;;;-144.73;100.00;54506.22;4995817;28;20029;-76
2023/08/31 05:43:04;;;;;;;20.48;5.88;;;;;;;-144.73;100.00;54539.06;4993719;28;20032;-74
2023/08/31 05:45:33;;;;;;;13.63;5.22;;;;;;;-144.73;100.00;54514.44;4992983;28;20030;-75
2023/08/31 05:47:59;;;;;;;11.02;4.75;;;;;;;-144.73;100.00;54489.81;5011516;28;20022;-73
2023/08/31 05:50:25;;;;;;;13.52;4.97;;;;;;;-144.73;100.00;54502.13;4993062;28;20111;-73
2023/08/31 05:52:50;;;;;;;18.02;5.55;;;;;;;-144.73;100.00;54485.69;5009748;28;20017;-78
2023/08/31 05:55:16;;;;;;;19.27;5.15;;;;;;;-144.73;100.00;54498.00;5010843;28;20038;-74
2023/08/31 05:57:41;;;;;;;14.82;4.60;;;;;;;-144.73;100.00;54495.97;4991417;28;20025;-73
2023/08/31 06:00:08;;;;;;;13.77;4.55;;;;;;;-144.73;100.00;54514.44;4992599;28;20173;-74
2023/08/31 06:02:33;;;;;;;12.68;4.43;;;;;;;-144.73;100.00;54481.59;4993323;28;20093;-74
2023/08/31 06:04:58;;;;;;;13.63;4.00;;;;;;;-144.73;100.00;54522.63;4996322;28;20132;-74
2023/08/31 06:07:24;;;;;;;9.85;3.70;;;;;;;-144.73;100.00;54477.47;4993556;28;20105;-74
2023/08/31 06:09:49;;;;;;;14.68;4.13;;;;;;;-144.73;100.00;54502.13;4992738;28;20038;-74
2023/08/31 06:12:14;;;;;;;13.88;4.13;;;;;;;-144.73;100.00;54510.31;5011461;28;20022;-74
2023/08/31 06:14:40;;;;;;;15.70;4.13;;;;;;;-144.73;100.00;54489.81;5002278;28;20048;-74
2023/08/31 06:17:05;;;;;;;17.08;4.15;;;;;;;-144.73;100.00;54493.91;5011283;28;20061;-74
2023/08/31 06:19:30;;;;;;;13.25;4.40;;;;;;;-144.73;100.00;54551.38;4992460;28;20093;-74
2023/08/31 06:21:56;;;;;;;13.40;3.90;;;;;;;-144.73;100.00;54551.38;4993681;28;20052;-74
2023/08/31 06:24:21;;;;;;;13.23;4.43;;;;;;;-144.73;100.00;54491.84;5010505;28;20034;-74
2023/08/31 06:26:46;;;;;;;8.52;3.83;;;;;;;-144.73;100.00;54500.06;4994836;28;20021;-74
2023/08/31 06:29:12;;;;;;;17.90;5.07;;;;;;;-144.73;100.00;54514.44;4996277;28;20030;-74
2023/08/31 06:31:38;;;;;;;14.18;4.60;;;;;;;-144.73;100.00;54506.22;5013189;28;20057;-75
2023/08/31 06:34:04;;;;;;;15.02;3.92;;;;;;;-144.73;100.00;54489.81;4997105;28;20026;-75
2023/08/31 06:36:30;;;;;;;15.80;4.22;;;;;;;-144.73;100.00;54518.53;4992696;28;20397;-74
2023/08/31 06:38:55;;;;;;;14.50;4.20;;;;;;;-144.73;100.00;54543.16;4996426;28;20013;-75
2023/08/31 06:41:20;;;;;;;13.65;4.03;;;;;;;-144.73;100.00;54489.81;5013651;28;20056;-74
2023/08/31 06:43:46;;;;;;;13.57;4.60;;;;;;;-144.73;100.00;54491.84;4996976;28;20022;-74
2023/08/31 06:46:11;;;;;;;13.00;4.07;;;;;;;-144.73;100.00;54485.69;4996524;28;20041;-74
2023/08/31 06:48:37;;;;;;;11.55;4.20;;;;;;;-144.73;100.00;54502.13;4992139;28;20026;-74
2023/08/31 06:51:03;;;;;;;9.52;3.75;;;;;;;-144.73;100.00;54493.91;4992641;28;20034;-74
2023/08/31 06:53:31;;;;;;;6.93;3.50;;;;;;;-144.73;100.00;54514.44;4996866;28;20025;-74
2023/08/31 06:55:57;;;;;;;16.83;4.40;;;;;;;-144.73;100.00;54502.13;4996308;28;20026;-74
2023/08/31 06:58:22;;;;;;;11.70;3.38;;;;;;;-144.73;100.00;54500.06;4996567;28;20026;-74
2023/08/31 07:00:48;;;;;;;9.80;3.53;;;;;;;-144.73;100.00;54481.59;4995978;28;20033;-74
2023/08/31 07:03:14;;;;;;;14.85;4.03;;;;;;;-144.73;100.00;54477.47;4997813;28;20029;-74
2023/08/31 07:05:42;;;;;;;15.65;4.70;;;;;;;-144.73;100.00;54510.31;5002939;28;20022;-74
2023/08/31 07:08:08;;;;;;;32.05;5.47;;;;;;;-144.73;100.00;54518.53;4996689;28;20136;-74
2023/08/31 07:10:36;;;;;;;11.50;3.60;;;;;;;-144.73;100.00;54485.69;4995688;28;20116;-74
2023/08/31 07:13:03;;;;;;;11.75;4.00;;;;;;;-144.73;100.00;54498.00;5005566;28;20037;-74
2023/08/31 07:15:29;;;;;;;10.25;3.78;;;;;;;-144.73;100.00;54524.69;4996967;28;20037;-74
2023/08/31 07:17:54;;;;;;;8.32;3.00;;;;;;;-144.73;100.00;54506.22;4996153;28;20022;-74
2023/08/31 07:20:19;;;;;;;9.32;3.30;;;;;;;-144.73;100.00;54485.69;5012074;28;20029;-74
2023/08/31 07:22:45;;;;;;;10.88;3.42;;;;;;;-144.73;100.00;54502.13;5013759;28;20033;-75
2023/08/31 07:25:11;;;;;;;9.23;2.80;;;;;;;-144.73;100.00;54518.53;4996027;28;20040;-74
2023/08/31 07:27:37;;;;;;;9.57;3.80;;;;;;;-144.73;100.00;54526.75;4996703;28;20026;-74
2023/08/31 07:30:05;;;;;;;12.70;3.28;;;;;;;-144.73;100.00;54487.75;4995845;28;20539;-74
2023/08/31 07:32:30;;;;;;;11.65;2.95;;;;;;;-144.73;100.00;54481.59;4995929;28;20037;-75
2023/08/31 07:34:56;;;;;;;11.45;3.13;;;;;;;-144.73;100.00;54518.53;4993256;28;20046;-74
2023/08/31 07:37:21;;;;;;;11.57;3.00;;;;;;;-144.73;100.00;54508.28;5008247;28;20041;-75
2023/08/31 07:39:46;;;;;;;7.55;2.58;;;;;;;-144.73;100.00;54512.38;5010689;28;20058;-74
2023/08/31 07:42:12;;;;;;;9.10;2.65;;;;;;;-144.73;100.00;54465.16;4992078;28;20096;-75
2023/08/31 07:44:37;;;;;;;8.27;2.50;;;;;;;-144.73;100.00;54487.75;4993315;28;20062;-75
2023/08/31 07:47:03;;;;;;;12.57;4.03;;;;;;;-144.73;100.00;54461.06;4994169;28;20033;-75
2023/08/31 07:49:28;;;;;;;12.45;2.78;;;;;;;-144.73;100.00;54495.97;4993328;28;20030;-74
2023/08/31 07:51:54;;;;;;;12.75;2.58;;;;;;;-144.73;100.00;54514.44;4993299;28;20014;-74
2023/08/31 07:54:22;;;;;;;9.48;2.17;;;;;;;-144.73;100.00;54489.81;4992670;28;20017;-74
2023/08/31 07:56:48;;;;;;;8.18;2.95;;;;;;;-144.73;100.00;54465.16;5000603;28;20022;-74
2023/08/31 07:59:13;;;;;;;5.50;2.13;;;;;;;-144.73;100.00;54448.75;4996009;28;20030;-73
2023/08/31 08:01:38;;;;;;;6.43;2.55;;;;;;;-144.73;100.00;54415.91;4994685;28;20021;-74
2023/08/31 08:04:04;;;;;;;9.00;2.17;;;;;;;-144.73;100.00;54440.53;4995822;28;20022;-74
2023/08/31 08:06:30;;;;;;;9.43;2.15;;;;;;;-144.73;100.00;54444.66;5002358;28;20045;-74
2023/08/31 08:08:55;;;;;;;6.32;1.95;;;;;;;-144.73;100.00;54498.00;4998725;28;20073;-74
2023/08/31 08:11:22;;;;;;;5.53;2.40;;;;;;;-144.73;100.00;54479.53;4995657;28;20045;-73
2023/08/31 08:13:47;;;;;;;12.60;3.05;;;;;;;-144.73;100.00;54477.47;4998719;28;20024;-74
2023/08/31 08:16:14;;;;;;;5.63;2.42;;;;;;;-144.73;100.00;54452.84;4999493;28;20033;-74
2023/08/31 08:18:39;;;;;;;9.75;2.85;;;;;;;-144.73;100.00;54450.81;5001345;28;20028;-74
2023/08/31 08:21:05;;;;;;;8.30;2.70;;;;;;;-144.73;100.00;54498.00;4994483;28;20045;-74
2023/08/31 08:23:30;;;;;;;7.38;2.65;;;;;;;-144.73;100.00;54452.84;4993252;28;20076;-74
2023/08/31 08:25:56;;;;;;;8.50;2.58;;;;;;;-144.73;100.00;54452.84;4997548;28;20072;-73
2023/08/31 08:28:21;;;;;;;6.97;2.47;;;;;;;-144.73;100.00;54498.00;4998471;28;20049;-73
2023/08/31 08:30:46;;;;;;;12.63;2.63;;;;;;;-144.73;100.00;54473.38;4996453;28;20038;-73
2023/08/31 08:33:12;;;;;;;7.25;2.97;;;;;;;-144.73;100.00;54461.06;4997829;28;20029;-73
2023/08/31 08:35:38;;;;;;;8.10;2.75;;;;;;;-144.73;100.00;54489.81;4996234;28;20033;-73
2023/08/31 08:38:03;;;;;;;7.10;2.17;;;;;;;-144.73;100.00;54489.81;4997445;28;20028;-74
2023/08/31 08:40:31;;;;;;;11.82;2.60;;;;;;;-144.73;100.00;54498.00;5007008;28;20029;-74
2023/08/31 08:43:00;;;;;;;9.07;2.40;;;;;;;-144.73;100.00;54461.06;5011742;28;20103;-73
2023/08/31 08:45:36;;;;;;;7.80;2.53;;;;;;;-144.73;100.00;54448.75;5014285;28;20029;-74
2023/08/31 08:48:03;;;;;;;12.85;1.85;;;;;;;-144.73;100.00;54489.81;5017065;28;20024;-74
2023/08/31 08:50:31;;;;;;;6.28;1.90;;;;;;;-144.73;100.00;54473.38;5015251;28;20067;-74
2023/08/31 08:52:57;;;;;;;7.28;2.30;;;;;;;-144.73;100.00;54498.00;5032856;28;20093;-73
2023/08/31 08:55:23;;;;;;;10.85;2.38;;;;;;;-144.73;100.00;54465.16;5031141;28;20044;-74
2023/08/31 08:57:48;;;;;;;11.85;2.03;;;;;;;-144.73;100.00;54411.81;5017066;28;20025;-73
2023/08/31 09:00:15;;;;;;;4.05;2.35;;;;;;;-144.73;100.00;54452.84;5013047;28;20159;-73
2023/08/31 09:02:41;;;;;;;8.38;2.13;;;;;;;-144.73;100.00;54477.47;5013911;28;20029;-73
2023/08/31 09:05:06;;;;;;;7.95;2.17;;;;;;;-144.73;100.00;54498.00;5033035;28;20040;-73
2023/08/31 09:07:38;;;;;;;10.88;1.65;;;;;;;-144.73;100.00;54463.13;5016955;28;20025;-74
2023/08/31 09:10:04;;;;;;;8.10;2.17;;;;;;;-144.73;100.00;54502.13;5016749;28;20140;-74
2023/08/31 09:12:29;;;;;;;8.98;2.67;;;;;;;-144.73;100.00;54489.81;5022275;28;20034;-74
2023/08/31 09:15:04;;;;;;;5.30;2.58;;;;;;;-144.73;100.00;54456.97;5017269;28;20029;-73
2023/08/31 09:17:48;;;;;;;9.98;2.55;;;;;;;-144.73;100.00;54469.28;5018109;28;20031;-74
2023/08/31 09:20:14;;;;;;;12.15;3.33;;;;;;;-144.73;100.00;54465.16;5011643;28;20026;-73
2023/08/31 09:22:42;;;;;;;8.18;3.70;;;;;;;-144.73;100.00;54483.66;5012672;28;20094;-74
2023/08/31 09:25:08;;;;;;;7.85;2.90;;;;;;;-144.73;100.00;54500.06;5016556;28;20087;-74
2023/08/31 09:27:38;;;;;;;13.95;3.67;;;;;;;-144.73;100.00;54456.97;5012900;28;20057;-73
2023/08/31 09:30:06;;;;;;;6.18;3.25;;;;;;;-144.73;100.00;54489.81;5012481;28;20030;-74
2023/08/31 09:32:31;;;;;;;10.50;2.70;;;;;;;-144.73;100.00;54469.28;5013237;28;20058;-74
2023/08/31 09:34:56;;;;;;;7.85;2.72;;;;;;;-144.73;100.00;54450.81;5028532;28;20037;-74
2023/08/31 09:37:22;;;;;;;14.50;3.33;;;;;;;-144.73;100.00;54436.44;5014367;28;20108;-74
2023/08/31 09:39:47;;;;;;;5.78;2.85;;;;;;;-144.73;100.00;54498.00;5029858;28;20191;-74
2023/08/31 09:42:12;;;;;;;17.20;3.17;;;;;;;-144.73;100.00;54473.38;5031556;28;20017;-76
2023/08/31 09:44:43;;;;;;;8.70;3.50;;;;;;;-144.73;100.00;54438.50;5016449;28;20096;-73
2023/08/31 09:47:09;;;;;;;5.63;2.83;;;;;;;-144.73;100.00;54463.13;5020154;28;20025;-74
2023/08/31 09:49:35;;;;;;;8.05;2.80;;;;;;;-144.73;100.00;54454.91;5033609;28;20124;-73
2023/08/31 09:52:04;;;;;;;9.48;3.35;;;;;;;-144.73;100.00;54489.81;5016432;28;20053;-72
2023/08/31 09:54:31;;;;;;;6.82;3.25;;;;;;;-144.73;100.00;54473.38;5036960;28;20037;-72
2023/08/31 09:56:59;;;;;;;9.02;2.95;;;;;;;-144.73;100.00;54456.97;5012529;28;20033;-73
2023/08/31 09:59:26;;;;;;;8.18;3.00;;;;;;;-144.73;100.00;54493.91;5013313;28;20045;-72
2023/08/31 10:01:51;;;;;;;12.60;3.17;;;;;;;-144.73;100.00;54477.47;5017082;28;20022;-73
2023/08/31 10:04:17;;;;;;;11.40;2.75;;;;;;;-144.73;100.00;54489.81;5015414;28;20025;-72
2023/08/31 10:06:42;;;;;;;8.00;4.10;;;;;;;-144.73;100.00;54465.16;5040994;28;20028;-74
2023/08/31 10:09:11;;;;;;;12.52;4.15;;;;;;;-144.73;100.00;54465.16;5020463;28;20017;-73
2023/08/31 10:11:38;;;;;;;5.00;2.88;;;;;;;-144.73;100.00;54500.06;5020262;28;20036;-72
2023/08/31 10:14:04;;;;;;;11.88;2.92;;;;;;;-144.73;100.00;54456.97;5030083;28;20021;-73
2023/08/31 10:16:30;;;;;;;10.98;3.30;;;;;;;-144.73;100.00;54434.38;5039415;28;20033;-72
2023/08/31 10:18:56;;;;;;;10.35;4.22;;;;;;;-144.73;100.00;54454.91;5023394;28;20018;-72
2023/08/31 10:21:22;;;;;;;11.95;3.65;;;;;;;-144.73;100.00;54454.91;5023756;28;20021;-72
2023/08/31 10:23:48;;;;;;;10.32;3.17;;;;;;;-144.73;100.00;54440.53;5043970;28;20040;-72
2023/08/31 10:26:28;;;;;;;6.57;2.55;;;;;;;-144.73;100.00;54444.66;5019015;28;20025;-73
2023/08/31 10:28:54;;;;;;;9.63;2.78;;;;;;;-144.73;100.00;54428.22;5024891;28;20045;-73
2023/08/31 10:31:24;;;;;;;15.80;2.00;;;;;;;-144.73;100.00;54485.69;5025550;28;20029;-73
2023/08/31 10:34:03;;;;;;;7.43;2.53;;;;;;;-144.73;100.00;54407.69;5037014;28;20021;-72
2023/08/31 10:36:45;;;;;;;7.22;2.80;;;;;;;-144.73;100.00;54424.13;5012149;28;20543;-73
2023/08/31 10:39:19;;;;;;;7.65;2.10;;;;;;;-144.73;100.00;54452.84;5020387;28;20049;-73
2023/08/31 10:41:55;;;;;;;6.72;2.60;;;;;;;-144.73;100.00;54452.84;5035786;28;20020;-73
2023/08/31 10:44:22;;;;;;;10.65;3.25;;;;;;;-144.73;100.00;54436.44;5016236;28;20048;-75
2023/08/31 10:46:49;;;;;;;8.15;3.15;;;;;;;-144.73;100.00;54498.00;5047225;28;20564;-72
2023/08/31 10:49:17;;;;;;;6.85;2.80;;;;;;;-144.73;100.00;54395.38;5019681;28;20104;-73
2023/08/31 10:51:48;;;;;;;7.97;3.47;;;;;;;-144.73;100.00;54438.50;5027029;28;20103;-73
2023/08/31 10:54:34;;;;;;;7.03;2.97;;;;;;;-144.73;100.00;54448.75;5036676;28;20017;-73
2023/08/31 10:57:06;;;;;;;6.43;2.95;;;;;;;-144.73;100.00;54498.00;5020572;28;20017;-73
2023/08/31 10:59:41;;;;;;;5.88;3.03;;;;;;;-144.73;100.00;54432.31;5023357;28;20030;-73
2023/08/31 11:02:07;;;;;;;10.70;2.60;;;;;;;-144.73;99.22;54461.06;5038022;28;20066;-73